createdAt,value
2022-10-11T00:00:29.463Z,0.00
2022-10-11T00:01:29.473Z,0.00
2022-10-11T00:02:29.433Z,0.00
2022-10-11T00:03:29.440Z,0.00
2022-10-11T00:04:29.437Z,0.00
2022-10-11T00:05:29.667Z,0.00
2022-10-11T00:06:29.385Z,0.00
2022-10-11T00:07:29.377Z,0.00
2022-10-11T00:08:29.476Z,0.00
2022-10-11T00:09:29.354Z,0.00
2022-10-11T00:10:29.365Z,0.00
2022-10-11T00:11:29.327Z,0.00
2022-10-11T00:12:29.318Z,0.00
2022-10-11T00:13:29.301Z,0.00
2022-10-11T00:14:29.274Z,0.00
2022-10-11T00:15:29.276Z,0.00
2022-10-11T00:16:29.358Z,0.00
2022-10-11T00:17:29.248Z,0.00
2022-10-11T00:18:29.491Z,0.00
2022-10-11T00:19:29.229Z,0.00
2022-10-11T00:20:29.255Z,0.00
2022-10-11T00:21:29.199Z,0.00
2022-10-11T00:22:29.540Z,0.00
2022-10-11T00:23:29.173Z,0.00
2022-10-11T00:24:29.169Z,0.00
2022-10-11T00:25:29.187Z,0.00
2022-10-11T00:26:29.131Z,0.00
2022-10-11T00:27:29.127Z,0.00
2022-10-11T00:28:29.197Z,0.00
2022-10-11T00:29:29.117Z,0.00
2022-10-11T00:30:29.081Z,0.00
2022-10-11T00:31:32.089Z,0.00
2022-10-11T00:32:30.065Z,0.00
2022-10-11T00:33:29.169Z,0.00
2022-10-11T00:34:29.995Z,0.00
2022-10-11T00:35:29.016Z,0.00
2022-10-11T00:36:29.007Z,0.00
2022-10-11T00:37:29.012Z,0.00
2022-10-11T00:38:31.601Z,0.00
2022-10-11T00:39:29.016Z,0.00
2022-10-11T00:40:28.965Z,0.00
2022-10-11T00:41:28.960Z,0.00
2022-10-11T00:42:28.933Z,0.00
2022-10-11T00:43:28.945Z,0.00
2022-10-11T00:44:28.914Z,0.00
2022-10-11T00:45:28.932Z,0.00
2022-10-11T00:46:28.891Z,0.00
2022-10-11T00:47:28.875Z,0.00
2022-10-11T00:48:29.545Z,0.00
2022-10-11T00:49:28.850Z,0.00
2022-10-11T00:50:28.850Z,0.00
2022-10-11T00:51:28.846Z,0.00
2022-10-11T00:52:28.808Z,0.00
2022-10-11T00:53:29.558Z,0.00
2022-10-11T00:54:28.787Z,0.00
2022-10-11T00:55:28.769Z,0.00
2022-10-11T00:56:28.751Z,0.00
2022-10-11T00:57:28.778Z,0.00
2022-10-11T00:58:28.745Z,0.00
2022-10-11T00:59:28.756Z,0.00
2022-10-11T01:00:28.719Z,0.00
2022-10-11T01:01:28.736Z,0.00
2022-10-11T01:02:28.700Z,0.00
2022-10-11T01:03:28.718Z,0.00
2022-10-11T01:04:28.690Z,0.00
2022-10-11T01:05:30.133Z,0.00
2022-10-11T01:06:28.630Z,0.00
2022-10-11T01:07:28.638Z,0.00
2022-10-11T01:08:28.608Z,0.00
2022-10-11T01:09:29.422Z,0.00
2022-10-11T01:10:28.590Z,0.00
2022-10-11T01:11:28.571Z,0.00
2022-10-11T01:12:33.403Z,0.00
2022-10-11T01:13:28.562Z,0.00
2022-10-11T01:14:28.532Z,0.00
2022-10-11T01:15:28.584Z,0.00
2022-10-11T01:16:28.503Z,0.00
2022-10-11T01:17:29.112Z,0.00
2022-10-11T01:18:28.554Z,0.00
2022-10-11T01:19:28.534Z,0.00
2022-10-11T01:20:28.454Z,0.00
2022-10-11T01:21:28.571Z,0.00
2022-10-11T01:22:28.726Z,0.00
2022-10-11T01:23:28.444Z,0.00
2022-10-11T01:24:28.416Z,0.00
2022-10-11T01:25:28.423Z,0.00
2022-10-11T01:26:28.394Z,0.00
2022-10-11T01:27:28.420Z,0.00
2022-10-11T01:28:28.478Z,0.00
2022-10-11T01:29:32.286Z,0.00
2022-10-11T01:30:28.336Z,0.00
2022-10-11T01:31:28.337Z,0.00
2022-10-11T01:32:28.321Z,0.00
2022-10-11T01:33:28.337Z,0.00
2022-10-11T01:34:28.278Z,0.00
2022-10-11T01:35:28.287Z,0.00
2022-10-11T01:36:28.256Z,0.00
2022-10-11T01:37:28.275Z,0.00
2022-10-11T01:38:28.963Z,0.00
2022-10-11T01:39:28.266Z,0.00
2022-10-11T01:40:29.182Z,0.00
2022-10-11T01:41:28.201Z,0.00
2022-10-11T01:42:28.193Z,0.00
2022-10-11T01:43:28.192Z,0.00
2022-10-11T01:44:28.178Z,0.00
2022-10-11T01:45:28.182Z,0.00
2022-10-11T01:46:28.131Z,0.00
2022-10-11T01:47:28.125Z,0.00
2022-10-11T01:48:28.110Z,0.00
2022-10-11T01:49:28.112Z,0.00
2022-10-11T01:50:28.768Z,0.00
2022-10-11T01:51:28.112Z,0.00
2022-10-11T01:52:28.074Z,0.00
2022-10-11T01:53:28.060Z,0.00
2022-10-11T01:54:44.064Z,0.00
2022-10-11T01:55:29.032Z,0.00
2022-10-11T01:56:28.515Z,0.00
2022-10-11T01:57:28.041Z,0.00
2022-10-11T01:58:27.993Z,0.00
2022-10-11T01:59:28.667Z,0.00
2022-10-11T02:00:27.967Z,0.00
2022-10-11T02:01:28.011Z,0.00
2022-10-11T02:02:27.954Z,0.00
2022-10-11T02:03:27.956Z,0.00
2022-10-11T02:04:27.917Z,0.00
2022-10-11T02:05:27.909Z,0.00
2022-10-11T02:06:27.902Z,0.00
2022-10-11T02:07:27.874Z,0.00
2022-10-11T02:08:27.858Z,0.00
2022-10-11T02:09:27.966Z,0.00
2022-10-11T02:10:27.837Z,0.00
2022-10-11T02:11:27.828Z,0.00
2022-10-11T02:12:27.809Z,0.00
2022-10-11T02:13:27.797Z,0.00
2022-10-11T02:14:27.791Z,0.00
2022-10-11T02:15:27.829Z,0.00
2022-10-11T02:16:27.759Z,0.00
2022-10-11T02:17:27.750Z,0.00
2022-10-11T02:18:27.739Z,0.00
2022-10-11T02:19:27.720Z,0.00
2022-10-11T02:20:27.977Z,0.00
2022-10-11T02:21:27.720Z,0.00
2022-10-11T02:22:27.689Z,0.00
2022-10-11T02:23:27.671Z,0.00
2022-10-11T02:24:27.671Z,0.00
2022-10-11T02:25:27.660Z,0.00
2022-10-11T02:26:27.642Z,0.00
2022-10-11T02:27:27.668Z,0.00
2022-10-11T02:28:27.673Z,0.00
2022-10-11T02:29:27.617Z,0.00
2022-10-11T02:30:27.597Z,0.00
2022-10-11T02:31:27.589Z,0.00
2022-10-11T02:32:27.586Z,0.00
2022-10-11T02:33:27.572Z,0.00
2022-10-11T02:34:27.550Z,0.00
2022-10-11T02:35:27.545Z,0.00
2022-10-11T02:36:27.524Z,0.00
2022-10-11T02:37:27.502Z,0.00
2022-10-11T02:38:27.493Z,0.00
2022-10-11T02:39:27.504Z,0.00
2022-10-11T02:40:27.464Z,0.00
2022-10-11T02:41:27.454Z,0.00
2022-10-11T02:42:27.462Z,0.00
2022-10-11T02:43:27.427Z,0.00
2022-10-11T02:44:27.421Z,0.00
2022-10-11T02:45:27.435Z,0.00
2022-10-11T02:46:27.400Z,0.00
2022-10-11T02:47:27.387Z,0.00
2022-10-11T02:48:27.364Z,0.00
2022-10-11T02:49:27.355Z,0.00
2022-10-11T02:50:27.365Z,0.00
2022-10-11T02:51:27.378Z,0.00
2022-10-11T02:52:27.335Z,0.00
2022-10-11T02:53:27.334Z,0.00
2022-10-11T02:54:27.297Z,0.00
2022-10-11T02:55:27.287Z,0.00
2022-10-11T02:56:27.540Z,0.00
2022-10-11T02:57:27.278Z,0.00
2022-10-11T02:58:27.245Z,0.00
2022-10-11T02:59:31.060Z,0.00
2022-10-11T03:00:27.219Z,0.00
2022-10-11T03:01:27.267Z,0.00
2022-10-11T03:02:27.198Z,0.00
2022-10-11T03:03:27.301Z,0.00
2022-10-11T03:04:27.168Z,0.00
2022-10-11T03:05:27.159Z,0.00
2022-10-11T03:06:27.149Z,0.00
2022-10-11T03:07:27.139Z,0.00
2022-10-11T03:08:27.119Z,0.00
2022-10-11T03:09:27.590Z,0.00
2022-10-11T03:10:27.099Z,0.00
2022-10-11T03:11:27.600Z,0.00
2022-10-11T03:12:27.073Z,0.00
2022-10-11T03:13:27.062Z,0.00
2022-10-11T03:14:27.049Z,0.00
2022-10-11T03:15:27.152Z,0.00
2022-10-11T03:16:27.727Z,0.00
2022-10-11T03:17:41.026Z,0.00
2022-10-11T03:18:28.001Z,0.00
2022-10-11T03:19:26.984Z,0.00
2022-10-11T03:20:27.290Z,0.00
2022-10-11T03:21:26.994Z,0.00
2022-10-11T03:22:26.960Z,0.00
2022-10-11T03:23:26.932Z,0.00
2022-10-11T03:24:26.923Z,0.00
2022-10-11T03:25:26.919Z,0.00
2022-10-11T03:26:26.904Z,0.00
2022-10-11T03:27:26.994Z,0.00
2022-10-11T03:28:26.915Z,0.00
2022-10-11T03:29:26.866Z,0.00
2022-10-11T03:30:26.845Z,0.00
2022-10-11T03:31:26.861Z,0.00
2022-10-11T03:32:26.825Z,0.00
2022-10-11T03:33:26.917Z,0.00
2022-10-11T03:34:26.806Z,0.00
2022-10-11T03:35:26.794Z,0.00
2022-10-11T03:36:26.776Z,0.00
2022-10-11T03:37:26.769Z,0.00
2022-10-11T03:38:26.776Z,0.00
2022-10-11T03:39:26.854Z,0.00
2022-10-11T03:40:27.100Z,0.00
2022-10-11T03:41:26.708Z,0.00
2022-10-11T03:42:26.716Z,0.00
2022-10-11T03:43:26.689Z,0.00
2022-10-11T03:44:26.677Z,0.00
2022-10-11T03:45:27.369Z,0.00
2022-10-11T03:46:27.487Z,0.00
2022-10-11T03:47:26.643Z,0.00
2022-10-11T03:48:26.687Z,0.00
2022-10-11T03:49:26.618Z,0.00
2022-10-11T03:50:26.609Z,0.00
2022-10-11T03:51:26.627Z,0.00
2022-10-11T03:52:26.581Z,0.00
2022-10-11T03:53:26.562Z,0.00
2022-10-11T03:54:27.387Z,0.00
2022-10-11T03:55:26.539Z,0.00
2022-10-11T03:56:26.530Z,0.00
2022-10-11T03:57:26.542Z,0.00
2022-10-11T03:58:26.507Z,0.00
2022-10-11T03:59:26.496Z,0.00
2022-10-11T04:00:27.451Z,0.00
2022-10-11T04:01:26.596Z,0.00
2022-10-11T04:02:26.455Z,0.00
2022-10-11T04:03:26.713Z,0.00
2022-10-11T04:04:27.381Z,0.00
2022-10-11T04:05:26.556Z,0.00
2022-10-11T04:06:27.372Z,0.00
2022-10-11T04:07:26.403Z,0.00
2022-10-11T04:08:26.384Z,0.00
2022-10-11T04:09:26.396Z,0.00
2022-10-11T04:10:26.453Z,0.00
2022-10-11T04:11:27.482Z,0.00
2022-10-11T04:12:26.345Z,0.00
2022-10-11T04:13:26.333Z,0.00
2022-10-11T04:14:26.311Z,0.00
2022-10-11T04:15:26.353Z,0.00
2022-10-11T04:16:26.296Z,0.00
2022-10-11T04:17:26.407Z,0.00
2022-10-11T04:18:26.256Z,0.00
2022-10-11T04:19:26.246Z,0.00
2022-10-11T04:20:26.250Z,0.00
2022-10-11T04:21:26.266Z,0.00
2022-10-11T04:22:26.537Z,0.00
2022-10-11T04:23:26.206Z,0.00
2022-10-11T04:24:26.588Z,0.00
2022-10-11T04:25:26.177Z,0.00
2022-10-11T04:26:26.167Z,0.00
2022-10-11T04:27:26.190Z,0.00
2022-10-11T04:28:26.208Z,0.00
2022-10-11T04:29:30.141Z,0.00
2022-10-11T04:30:27.123Z,0.00
2022-10-11T04:31:26.107Z,0.00
2022-10-11T04:32:26.822Z,0.00
2022-10-11T04:33:26.131Z,0.00
2022-10-11T04:34:26.069Z,0.00
2022-10-11T04:35:26.884Z,0.00
2022-10-11T04:36:26.871Z,0.00
2022-10-11T04:37:26.030Z,0.00
2022-10-11T04:38:26.029Z,0.00
2022-10-11T04:39:26.860Z,0.00
2022-10-11T04:40:26.002Z,0.00
2022-10-11T04:41:26.578Z,0.00
2022-10-11T04:42:25.971Z,0.00
2022-10-11T04:43:26.769Z,0.00
2022-10-11T04:44:26.164Z,0.00
2022-10-11T04:45:26.221Z,0.00
2022-10-11T04:46:25.941Z,0.00
2022-10-11T04:47:26.598Z,0.00
2022-10-11T04:48:25.922Z,0.00
2022-10-11T04:49:26.721Z,0.00
2022-10-11T04:50:26.645Z,0.00
2022-10-11T04:51:25.907Z,0.00
2022-10-11T04:52:26.473Z,0.00
2022-10-11T04:53:25.854Z,0.00
2022-10-11T04:54:25.822Z,0.00
2022-10-11T04:55:25.815Z,0.00
2022-10-11T04:56:25.794Z,0.00
2022-10-11T04:57:25.821Z,0.00
2022-10-11T04:58:25.776Z,0.00
2022-10-11T04:59:25.807Z,0.00
2022-10-11T05:00:25.774Z,0.00
2022-10-11T05:01:25.737Z,0.00
2022-10-11T05:02:25.791Z,0.00
2022-10-11T05:03:25.735Z,0.00
2022-10-11T05:04:25.713Z,0.00
2022-10-11T05:05:25.688Z,0.00
2022-10-11T05:06:25.693Z,0.00
2022-10-11T05:07:25.667Z,0.00
2022-10-11T05:08:25.794Z,1.00
2022-10-11T05:09:25.668Z,1.00
2022-10-11T05:10:25.626Z,1.00
2022-10-11T05:11:25.685Z,0.00
2022-10-11T05:12:25.607Z,0.00
2022-10-11T05:13:25.849Z,0.00
2022-10-11T05:14:27.021Z,0.00
2022-10-11T05:15:25.588Z,2.00
2022-10-11T05:16:25.801Z,2.00
2022-10-11T05:17:25.788Z,4.00
2022-10-11T05:18:25.534Z,0.00
2022-10-11T05:19:25.518Z,4.00
2022-10-11T05:20:25.518Z,2.00
2022-10-11T05:21:25.529Z,1.00
2022-10-11T05:22:25.484Z,3.00
2022-10-11T05:23:25.570Z,9.00
2022-10-11T05:24:25.784Z,13.00
2022-10-11T05:25:25.798Z,4.00
2022-10-11T05:26:25.429Z,12.00
2022-10-11T05:27:25.530Z,13.00
2022-10-11T05:28:25.476Z,15.00
2022-10-11T05:29:25.772Z,20.00
2022-10-11T05:30:25.773Z,12.00
2022-10-11T05:31:25.565Z,16.00
2022-10-11T05:32:28.001Z,20.00
2022-10-11T05:33:25.762Z,23.00
2022-10-11T05:34:25.773Z,29.00
2022-10-11T05:35:25.764Z,33.00
2022-10-11T05:36:25.763Z,38.00
2022-10-11T05:37:25.292Z,43.00
2022-10-11T05:38:25.293Z,54.00
2022-10-11T05:39:25.781Z,57.00
2022-10-11T05:40:25.262Z,78.00
2022-10-11T05:41:25.244Z,91.00
2022-10-11T05:42:25.244Z,102.00
2022-10-11T05:43:25.762Z,117.00
2022-10-11T05:44:25.219Z,149.00
2022-10-11T05:45:25.722Z,169.00
2022-10-11T05:46:25.728Z,199.00
2022-10-11T05:47:25.180Z,222.00
2022-10-11T05:48:25.756Z,256.00
2022-10-11T05:49:25.152Z,297.00
2022-10-11T05:50:25.758Z,320.00
2022-10-11T05:51:25.526Z,358.00
2022-10-11T05:52:25.528Z,389.00
2022-10-11T05:53:25.208Z,424.00
2022-10-11T05:54:25.094Z,457.00
2022-10-11T05:55:25.089Z,493.00
2022-10-11T05:56:25.116Z,543.00
2022-10-11T05:57:26.042Z,582.00
2022-10-11T05:58:25.166Z,628.00
2022-10-11T05:59:25.978Z,677.00
2022-10-11T06:00:25.028Z,720.00
2022-10-11T06:01:25.086Z,789.00
2022-10-11T06:02:26.159Z,841.00
2022-10-11T06:03:25.099Z,898.00
2022-10-11T06:04:25.161Z,958.00
2022-10-11T06:05:24.999Z,1021.00
2022-10-11T06:06:25.307Z,1097.00
2022-10-11T06:07:24.921Z,1149.00
2022-10-11T06:08:24.912Z,1222.00
2022-10-11T06:09:24.941Z,1276.00
2022-10-11T06:10:24.915Z,1341.00
2022-10-11T06:11:25.410Z,1398.00
2022-10-11T06:12:24.893Z,1455.00
2022-10-11T06:13:25.041Z,1525.00
2022-10-11T06:14:25.151Z,1599.00
2022-10-11T06:15:25.282Z,1672.00
2022-10-11T06:16:25.462Z,1757.00
2022-10-11T06:17:25.502Z,1821.00
2022-10-11T06:18:24.892Z,1893.00
2022-10-11T06:19:25.548Z,1931.00
2022-10-11T06:20:24.763Z,1969.00
2022-10-11T06:21:25.314Z,2029.00
2022-10-11T06:22:25.957Z,2100.00
2022-10-11T06:23:28.643Z,2196.00
2022-10-11T06:24:24.906Z,2299.00
2022-10-11T06:25:24.707Z,2391.00
2022-10-11T06:26:25.013Z,2483.00
2022-10-11T06:27:29.266Z,2575.00
2022-10-11T06:28:24.861Z,2658.00
2022-10-11T06:29:24.934Z,2722.00
2022-10-11T06:30:25.026Z,2773.00
2022-10-11T06:31:25.140Z,2813.00
2022-10-11T06:32:24.895Z,2884.00
2022-10-11T06:33:25.486Z,2957.00
2022-10-11T06:34:24.796Z,3041.00
2022-10-11T06:35:24.586Z,3096.00
2022-10-11T06:36:24.861Z,3163.00
2022-10-11T06:37:24.905Z,3250.00
2022-10-11T06:38:24.647Z,3337.00
2022-10-11T06:39:25.387Z,3389.00
2022-10-11T06:40:24.749Z,3370.00
2022-10-11T06:41:25.337Z,3468.00
2022-10-11T06:42:24.777Z,3575.00
2022-10-11T06:43:24.799Z,3619.00
2022-10-11T06:44:24.481Z,3635.00
2022-10-11T06:45:25.111Z,3702.00
2022-10-11T06:46:24.809Z,3792.00
2022-10-11T06:47:24.429Z,3841.00
2022-10-11T06:48:25.209Z,3860.00
2022-10-11T06:49:24.749Z,3905.00
2022-10-11T06:50:47.075Z,3967.00
2022-10-11T06:51:25.691Z,4102.00
2022-10-11T06:52:24.431Z,4195.00
2022-10-11T06:53:25.449Z,4320.00
2022-10-11T06:54:24.354Z,4385.00
2022-10-11T06:55:24.385Z,4486.00
2022-10-11T06:56:24.324Z,4551.00
2022-10-11T06:57:24.347Z,4597.00
2022-10-11T06:58:24.845Z,4764.00
2022-10-11T06:59:24.372Z,4838.00
2022-10-11T07:00:24.291Z,5015.00
2022-10-11T07:01:24.454Z,5064.00
2022-10-11T07:02:24.322Z,5167.00
2022-10-11T07:03:24.293Z,5232.00
2022-10-11T07:04:24.411Z,5323.00
2022-10-11T07:05:24.329Z,5366.00
2022-10-11T07:06:24.513Z,5471.00
2022-10-11T07:07:24.445Z,5599.00
2022-10-11T07:08:24.505Z,5605.00
2022-10-11T07:09:24.375Z,5624.00
2022-10-11T07:10:24.244Z,5594.00
2022-10-11T07:11:24.594Z,5458.00
2022-10-11T07:12:24.129Z,5628.00
2022-10-11T07:13:24.406Z,5748.00
2022-10-11T07:14:24.435Z,5778.00
2022-10-11T07:15:24.689Z,5935.00
2022-10-11T07:16:24.668Z,6105.00
2022-10-11T07:17:24.294Z,6160.00
2022-10-11T07:18:24.567Z,6205.00
2022-10-11T07:19:24.039Z,6153.00
2022-10-11T07:20:24.247Z,6083.00
2022-10-11T07:21:24.224Z,5942.00
2022-10-11T07:22:24.961Z,5823.00
2022-10-11T07:23:24.506Z,5733.00
2022-10-11T07:24:23.982Z,5599.00
2022-10-11T07:25:24.002Z,5636.00
2022-10-11T07:26:24.660Z,5700.00
2022-10-11T07:27:24.180Z,5904.00
2022-10-11T07:28:24.014Z,6141.00
2022-10-11T07:29:24.251Z,6374.00
2022-10-11T07:30:24.011Z,6423.00
2022-10-11T07:31:24.681Z,6393.00
2022-10-11T07:32:24.165Z,6309.00
2022-10-11T07:33:23.919Z,6221.00
2022-10-11T07:34:23.875Z,6196.00
2022-10-11T07:35:23.964Z,6430.00
2022-10-11T07:36:24.481Z,6277.00
2022-10-11T07:37:24.423Z,6487.00
2022-10-11T07:38:23.805Z,6813.00
2022-10-11T07:39:24.633Z,6886.00
2022-10-11T07:40:23.960Z,7137.00
2022-10-11T07:41:23.897Z,7301.00
2022-10-11T07:42:24.373Z,7413.00
2022-10-11T07:43:23.745Z,7352.00
2022-10-11T07:44:23.757Z,7384.00
2022-10-11T07:45:23.837Z,7302.00
2022-10-11T07:46:24.065Z,7216.00
2022-10-11T07:47:24.134Z,7302.00
2022-10-11T07:48:24.247Z,7252.00
2022-10-11T07:49:23.666Z,7500.00
2022-10-11T07:50:23.782Z,7408.00
2022-10-11T07:51:23.684Z,7621.00
2022-10-11T07:52:23.645Z,7731.00
2022-10-11T07:53:23.661Z,7790.00
2022-10-11T07:54:23.645Z,7888.00
2022-10-11T07:55:23.647Z,7910.00
2022-10-11T07:56:23.638Z,7799.00
2022-10-11T07:57:23.665Z,7745.00
2022-10-11T07:58:23.567Z,7660.00
2022-10-11T07:59:23.561Z,7728.00
2022-10-11T08:00:23.647Z,8103.00
2022-10-11T08:01:23.672Z,8373.00
2022-10-11T08:02:23.599Z,8410.00
2022-10-11T08:03:23.613Z,8364.00
2022-10-11T08:04:23.639Z,8322.00
2022-10-11T08:05:23.470Z,8305.00
2022-10-11T08:06:23.571Z,8147.00
2022-10-11T08:07:23.519Z,8079.00
2022-10-11T08:08:23.455Z,8109.00
2022-10-11T08:09:23.488Z,8036.00
2022-10-11T08:10:23.489Z,8253.00
2022-10-11T08:11:23.521Z,8236.00
2022-10-11T08:12:23.717Z,8503.00
2022-10-11T08:13:23.631Z,8722.00
2022-10-11T08:14:23.537Z,8275.00
2022-10-11T08:15:23.621Z,8155.00
2022-10-11T08:16:23.621Z,8184.00
2022-10-11T08:17:23.613Z,8167.00
2022-10-11T08:18:23.347Z,8141.00
2022-10-11T08:19:23.495Z,8316.00
2022-10-11T08:20:23.563Z,8409.00
2022-10-11T08:21:23.615Z,8318.00
2022-10-11T08:22:23.357Z,8428.00
2022-10-11T08:23:23.241Z,8614.00
2022-10-11T08:24:23.280Z,8465.00
2022-10-11T08:25:23.623Z,8735.00
2022-10-11T08:26:23.385Z,9097.00
2022-10-11T08:27:23.618Z,8990.00
2022-10-11T08:28:24.023Z,9076.00
2022-10-11T08:29:23.265Z,8969.00
2022-10-11T08:30:23.318Z,9066.00
2022-10-11T08:31:23.156Z,9145.00
2022-10-11T08:32:23.277Z,9118.00
2022-10-11T08:33:23.273Z,9303.00
2022-10-11T08:34:23.269Z,9423.00
2022-10-11T08:35:23.287Z,9418.00
2022-10-11T08:36:23.268Z,9525.00
2022-10-11T08:37:23.205Z,9623.00
2022-10-11T08:38:23.269Z,9670.00
2022-10-11T08:39:23.268Z,9674.00
2022-10-11T08:40:23.364Z,9711.00
2022-10-11T08:41:23.538Z,9602.00
2022-10-11T08:42:23.032Z,9577.00
2022-10-11T08:43:23.030Z,9510.00
2022-10-11T08:44:23.100Z,9693.00
2022-10-11T08:45:23.283Z,9962.00
2022-10-11T08:46:23.592Z,10117.00
2022-10-11T08:47:23.202Z,10171.00
2022-10-11T08:48:23.142Z,10245.00
2022-10-11T08:49:23.295Z,10125.00
2022-10-11T08:50:23.144Z,9913.00
2022-10-11T08:51:23.282Z,9684.00
2022-10-11T08:52:23.259Z,9568.00
2022-10-11T08:53:22.883Z,9760.00
2022-10-11T08:54:22.934Z,9865.00
2022-10-11T08:55:22.911Z,9865.00
2022-10-11T08:56:22.987Z,9849.00
2022-10-11T08:57:23.024Z,9884.00
2022-10-11T08:58:23.415Z,9902.00
2022-10-11T08:59:23.587Z,9899.00
2022-10-11T09:00:23.292Z,9947.00
2022-10-11T09:01:23.721Z,9993.00
2022-10-11T09:02:22.738Z,10050.00
2022-10-11T09:03:22.794Z,10041.00
2022-10-11T09:04:22.749Z,10084.00
2022-10-11T09:05:22.757Z,10107.00
2022-10-11T09:06:22.846Z,10078.00
2022-10-11T09:07:22.815Z,9973.00
2022-10-11T09:08:22.813Z,9916.00
2022-10-11T09:09:22.851Z,9862.00
2022-10-11T09:10:22.684Z,9889.00
2022-10-11T09:11:22.746Z,9883.00
2022-10-11T09:12:22.871Z,9834.00
2022-10-11T09:13:22.904Z,9899.00
2022-10-11T09:14:22.922Z,9902.00
2022-10-11T09:15:22.937Z,9915.00
2022-10-11T09:16:22.943Z,9941.00
2022-10-11T09:17:22.864Z,9988.00
2022-10-11T09:18:22.614Z,10109.00
2022-10-11T09:19:22.836Z,10256.00
2022-10-11T09:20:22.514Z,10412.00
2022-10-11T09:21:22.689Z,10534.00
2022-10-11T09:22:24.810Z,10615.00
2022-10-11T09:23:23.588Z,10681.00
2022-10-11T09:24:22.564Z,10721.00
2022-10-11T09:25:23.399Z,10754.00
2022-10-11T09:26:23.307Z,10647.00
2022-10-11T09:27:37.854Z,10719.00
2022-10-11T09:28:23.620Z,10817.00
2022-10-11T09:29:22.510Z,10835.00
2022-10-11T09:30:22.503Z,10811.00
2022-10-11T09:31:22.824Z,10726.00
2022-10-11T09:32:22.513Z,10649.00
2022-10-11T09:33:23.051Z,10679.00
2022-10-11T09:34:22.371Z,10645.00
2022-10-11T09:35:22.524Z,10615.00
2022-10-11T09:36:22.393Z,10603.00
2022-10-11T09:37:22.522Z,10577.00
2022-10-11T09:38:22.603Z,10593.00
2022-10-11T09:39:22.320Z,10646.00
2022-10-11T09:40:22.537Z,10631.00
2022-10-11T09:41:22.625Z,10763.00
2022-10-11T09:42:22.258Z,10814.00
2022-10-11T09:43:22.261Z,10831.00
2022-10-11T09:44:22.497Z,10778.00
2022-10-11T09:45:22.516Z,10681.00
2022-10-11T09:46:22.236Z,10525.00
2022-10-11T09:47:22.397Z,10655.00
2022-10-11T09:48:22.728Z,10601.00
2022-10-11T09:49:22.157Z,10634.00
2022-10-11T09:50:22.200Z,10626.00
2022-10-11T09:51:22.314Z,10653.00
2022-10-11T09:52:22.318Z,10707.00
2022-10-11T09:53:23.051Z,10736.00
2022-10-11T09:54:22.467Z,10867.00
2022-10-11T09:55:22.439Z,10914.00
2022-10-11T09:56:22.115Z,11025.00
2022-10-11T09:57:22.210Z,11019.00
2022-10-11T09:58:22.281Z,11135.00
2022-10-11T09:59:22.061Z,11162.00
2022-10-11T10:00:22.093Z,11146.00
2022-10-11T10:01:22.638Z,11135.00
2022-10-11T10:02:22.781Z,11131.00
2022-10-11T10:03:22.624Z,11120.00
2022-10-11T10:04:22.042Z,11148.00
2022-10-11T10:05:22.772Z,11236.00
2022-10-11T10:06:22.243Z,11205.00
2022-10-11T10:07:22.337Z,11121.00
2022-10-11T10:08:22.143Z,11084.00
2022-10-11T10:09:22.254Z,10974.00
2022-10-11T10:10:21.882Z,10814.00
2022-10-11T10:11:21.898Z,10751.00
2022-10-11T10:12:21.907Z,10676.00
2022-10-11T10:13:21.933Z,10545.00
2022-10-11T10:14:21.957Z,10506.00
2022-10-11T10:15:21.956Z,10513.00
2022-10-11T10:16:21.967Z,10552.00
2022-10-11T10:17:21.927Z,10526.00
2022-10-11T10:18:22.009Z,10546.00
2022-10-11T10:19:22.089Z,10653.00
2022-10-11T10:20:22.051Z,10720.00
2022-10-11T10:21:22.050Z,10730.00
2022-10-11T10:22:21.720Z,10895.00
2022-10-11T10:23:21.939Z,10898.00
2022-10-11T10:24:22.063Z,10774.00
2022-10-11T10:25:21.782Z,11001.00
2022-10-11T10:26:22.161Z,11134.00
2022-10-11T10:27:21.698Z,11226.00
2022-10-11T10:28:22.227Z,11466.00
2022-10-11T10:29:21.664Z,11543.00
2022-10-11T10:30:21.900Z,11615.00
2022-10-11T10:31:22.253Z,11670.00
2022-10-11T10:32:22.256Z,11728.00
2022-10-11T10:33:21.696Z,11683.00
2022-10-11T10:34:21.573Z,11394.00
2022-10-11T10:35:21.792Z,11219.00
2022-10-11T10:36:21.554Z,11107.00
2022-10-11T10:37:22.085Z,11088.00
2022-10-11T10:38:26.225Z,11167.00
2022-10-11T10:39:23.133Z,11310.00
2022-10-11T10:40:21.509Z,11342.00
2022-10-11T10:41:21.513Z,11422.00
2022-10-11T10:42:21.494Z,11480.00
2022-10-11T10:43:21.508Z,11459.00
2022-10-11T10:44:22.409Z,11304.00
2022-10-11T10:45:22.147Z,11245.00
2022-10-11T10:46:21.489Z,11075.00
2022-10-11T10:47:21.494Z,11055.00
2022-10-11T10:48:21.479Z,10991.00
2022-10-11T10:50:22.597Z,10873.00
2022-10-11T10:51:21.494Z,10933.00
2022-10-11T10:52:22.331Z,10529.00
2022-10-11T10:53:21.479Z,8911.00
2022-10-11T10:54:21.496Z,9036.00
2022-10-11T10:55:21.502Z,9594.00
2022-10-11T10:56:21.392Z,10785.00
2022-10-11T10:57:21.397Z,10811.00
2022-10-11T10:58:21.489Z,10860.00
2022-10-11T10:59:21.542Z,10851.00
2022-10-11T11:00:22.209Z,10827.00
2022-10-11T11:01:21.518Z,10861.00
2022-10-11T11:02:39.694Z,10902.00
2022-10-11T11:03:22.275Z,10942.00
2022-10-11T11:04:21.204Z,10961.00
2022-10-11T11:05:21.487Z,10988.00
2022-10-11T11:06:21.189Z,11001.00
2022-10-11T11:07:22.700Z,11028.00
2022-10-11T11:08:21.326Z,11083.00
2022-10-11T11:09:21.276Z,11102.00
2022-10-11T11:10:21.945Z,11043.00
2022-10-11T11:11:21.467Z,11104.00
2022-10-11T11:12:21.479Z,11097.00
2022-10-11T11:13:21.478Z,11165.00
2022-10-11T11:14:21.142Z,11266.00
2022-10-11T11:15:26.434Z,11278.00
2022-10-11T11:16:22.092Z,11288.00
2022-10-11T11:17:21.042Z,11298.00
2022-10-11T11:18:21.081Z,11283.00
2022-10-11T11:19:21.074Z,11272.00
2022-10-11T11:20:21.468Z,11227.00
2022-10-11T11:21:21.108Z,11235.00
2022-10-11T11:22:29.105Z,11166.00
2022-10-11T11:23:22.212Z,11169.00
2022-10-11T11:24:21.150Z,11157.00
2022-10-11T11:25:21.196Z,11098.00
2022-10-11T11:26:21.022Z,10991.00
2022-10-11T11:27:20.946Z,10937.00
2022-10-11T11:28:21.292Z,10834.00
2022-10-11T11:29:21.309Z,10752.00
2022-10-11T11:30:21.145Z,10671.00
2022-10-11T11:31:21.259Z,10586.00
2022-10-11T11:32:21.857Z,10523.00
2022-10-11T11:33:20.966Z,10420.00
2022-10-11T11:34:20.973Z,10237.00
2022-10-11T11:35:20.806Z,10219.00
2022-10-11T11:36:21.340Z,10117.00
2022-10-11T11:37:21.361Z,10100.00
2022-10-11T11:38:20.859Z,10025.00
2022-10-11T11:39:22.210Z,9933.00
2022-10-11T11:40:20.898Z,9911.00
2022-10-11T11:41:21.003Z,9863.00
2022-10-11T11:42:20.859Z,9844.00
2022-10-11T11:43:21.180Z,9791.00
2022-10-11T11:44:25.127Z,9729.00
2022-10-11T11:45:22.155Z,9649.00
2022-10-11T11:46:21.442Z,9724.00
2022-10-11T11:47:20.653Z,9865.00
2022-10-11T11:48:20.658Z,9979.00
2022-10-11T11:49:21.087Z,10072.00
2022-10-11T11:50:21.272Z,10225.00
2022-10-11T11:51:20.927Z,10328.00
2022-10-11T11:52:20.593Z,10392.00
2022-10-11T11:53:20.830Z,10242.00
2022-10-11T11:54:21.067Z,10208.00
2022-10-11T11:55:20.556Z,10195.00
2022-10-11T11:56:20.619Z,10030.00
2022-10-11T11:57:20.697Z,7465.00
2022-10-11T11:58:21.053Z,7637.00
2022-10-11T11:59:20.896Z,10892.00
2022-10-11T12:00:21.088Z,10680.00
2022-10-11T12:01:21.127Z,10609.00
2022-10-11T12:02:21.362Z,10669.00
2022-10-11T12:03:20.508Z,8598.00
2022-10-11T12:04:20.617Z,10689.00
2022-10-11T12:05:21.376Z,10711.00
2022-10-11T12:06:20.491Z,10729.00
2022-10-11T12:07:20.707Z,10796.00
2022-10-11T12:08:20.841Z,10752.00
2022-10-11T12:09:21.040Z,10653.00
2022-10-11T12:10:21.190Z,10514.00
2022-10-11T12:11:21.179Z,10432.00
2022-10-11T12:12:20.440Z,10430.00
2022-10-11T12:13:20.491Z,10432.00
2022-10-11T12:14:20.472Z,10421.00
2022-10-11T12:15:21.250Z,7394.00
2022-10-11T12:16:21.114Z,9927.00
2022-10-11T12:17:21.223Z,10493.00
2022-10-11T12:18:20.633Z,10439.00
2022-10-11T12:19:21.032Z,10529.00
2022-10-11T12:20:20.704Z,10517.00
2022-10-11T12:21:20.548Z,10592.00
2022-10-11T12:22:20.305Z,10624.00
2022-10-11T12:23:20.286Z,10665.00
2022-10-11T12:24:20.226Z,10619.00
2022-10-11T12:25:21.135Z,10643.00
2022-10-11T12:26:20.245Z,10739.00
2022-10-11T12:27:20.186Z,10830.00
2022-10-11T12:28:20.724Z,10898.00
2022-10-11T12:29:25.907Z,10960.00
2022-10-11T12:30:21.411Z,11078.00
2022-10-11T12:31:20.230Z,11122.00
2022-10-11T12:32:20.229Z,11216.00